Time;durP1;ratioP1;P1;durP2;ratioP2;P2;SDS_P1;SDS_P2;PMS_P1;PMS_P2;Temp;Humidity;BMP_temperature;BMP_pressure;BME280_temperature;BME280_humidity;BME280_pressure;Samples;Min_cycle;Max_cycle;Signal;HPM_P1;HPM_P2
2023/03/01 00:01:13;;;;;;;29.38;18.45;;;0.70;99.90;;;;;;5071240;28;20359;-61
2023/03/01 00:03:39;;;;;;;25.45;16.05;;;0.90;99.90;;;;;;5054542;28;20094;-61
2023/03/01 00:06:06;;;;;;;28.27;16.92;;;0.50;99.90;;;;;;5071255;28;20040;-60
2023/03/01 00:08:32;;;;;;;27.70;17.33;;;0.50;99.90;;;;;;5072415;28;20486;-60
2023/03/01 00:11:37;;;;;;;27.38;16.25;;;0.50;99.90;;;;;;5071297;28;20513;-60
2023/03/01 00:14:06;;;;;;;24.33;15.10;;;0.60;99.90;;;;;;5054890;28;20591;-61
2023/03/01 00:16:35;;;;;;;24.30;15.38;;;0.50;99.90;;;;;;5072590;28;20044;-60
2023/03/01 00:19:02;;;;;;;24.55;15.13;;;0.80;99.90;;;;;;5072178;28;20078;-61
2023/03/01 00:21:28;;;;;;;26.08;15.13;;;0.80;99.90;;;;;;5072218;28;20050;-61
2023/03/01 00:23:54;;;;;;;24.55;15.10;;;0.50;99.90;;;;;;5072206;28;20112;-61
2023/03/01 00:26:21;;;;;;;23.60;14.90;;;0.70;99.90;;;;;;5072017;28;20045;-61
2023/03/01 00:28:47;;;;;;;18.92;12.48;;;0.60;99.90;;;;;;5070907;28;20086;-61
2023/03/01 00:31:19;;;;;;;18.42;12.18;;;0.60;99.90;;;;;;5072432;28;20052;-61
2023/03/01 00:33:45;;;;;;;19.55;12.63;;;0.50;99.90;;;;;;5072266;28;20040;-61
2023/03/01 00:36:14;;;;;;;19.08;11.50;;;0.40;99.90;;;;;;5071931;28;20040;-61
2023/03/01 00:38:44;;;;;;;16.55;10.93;;;0.40;99.90;;;;;;5070988;28;20056;-61
2023/03/01 00:41:13;;;;;;;16.80;11.10;;;0.30;99.90;;;;;;5072020;28;20408;-61
2023/03/01 00:43:39;;;;;;;17.90;11.60;;;0.30;99.90;;;;;;5071149;28;20052;-61
2023/03/01 00:46:10;;;;;;;17.13;11.13;;;0.40;99.90;;;;;;5072009;28;20048;-61
2023/03/01 00:48:37;;;;;;;16.10;10.43;;;0.30;99.90;;;;;;5071883;28;20040;-61
2023/03/01 00:51:07;;;;;;;17.65;11.63;;;0.50;99.90;;;;;;5071910;28;20056;-61
2023/03/01 00:53:34;;;;;;;15.95;8.90;;;0.30;99.90;;;;;;5071644;28;20123;-61
2023/03/01 00:55:59;;;;;;;14.77;8.93;;;0.40;99.90;;;;;;5071877;28;20086;-61
2023/03/01 00:58:26;;;;;;;15.27;8.27;;;0.10;99.90;;;;;;5072026;28;20076;-61
2023/03/01 01:00:52;;;;;;;14.70;8.85;;;0.20;99.90;;;;;;5071655;28;20500;-61
2023/03/01 01:03:18;;;;;;;15.57;8.02;;;0.20;99.90;;;;;;5071619;28;20076;-61
2023/03/01 01:05:44;;;;;;;33.83;8.15;;;0.10;99.90;;;;;;5071789;28;20120;-61
2023/03/01 01:08:10;;;;;;;16.60;8.25;;;-0.30;99.90;;;;;;5071548;28;20175;-61
2023/03/01 01:10:36;;;;;;;11.07;6.57;;;-0.30;99.90;;;;;;5071562;28;20413;-61
2023/03/01 01:13:01;;;;;;;19.52;6.35;;;-0.20;99.90;;;;;;5071795;28;20032;-61
2023/03/01 01:15:27;;;;;;;62.42;7.30;;;-0.20;99.90;;;;;;5071817;28;20591;-60
2023/03/01 01:17:53;;;;;;;26.35;6.07;;;-0.60;99.90;;;;;;5071665;28;20037;-60
2023/03/01 01:20:18;;;;;;;38.45;6.40;;;-0.40;99.90;;;;;;5072066;28;20101;-61
2023/03/01 01:22:44;;;;;;;47.00;6.78;;;-0.40;99.90;;;;;;5071553;28;20407;-61
2023/03/01 01:25:10;;;;;;;68.75;7.22;;;-0.40;99.90;;;;;;5071631;28;20051;-61
2023/03/01 01:27:36;;;;;;;96.63;9.07;;;-0.70;99.90;;;;;;5071537;28;20041;-61
2023/03/01 01:30:02;;;;;;;39.13;5.50;;;-0.60;99.90;;;;;;5071531;28;20408;-61
2023/03/01 01:32:28;;;;;;;40.67;6.10;;;-0.90;99.90;;;;;;5071358;28;20500;-61
2023/03/01 01:34:53;;;;;;;24.85;5.78;;;-0.50;99.90;;;;;;5070190;28;20036;-60
2023/03/01 01:37:19;;;;;;;45.72;6.15;;;-0.40;99.90;;;;;;5070060;28;20103;-61
2023/03/01 01:39:45;;;;;;;20.23;5.88;;;-0.30;99.90;;;;;;5071698;28;20431;-61
2023/03/01 01:42:18;;;;;;;12.05;5.05;;;-0.40;99.90;;;;;;5071378;28;20068;-61
2023/03/01 01:44:47;;;;;;;44.28;5.70;;;-0.80;99.90;;;;;;5071541;28;20072;-61
2023/03/01 01:47:20;;;;;;;56.63;6.35;;;-0.80;99.90;;;;;;5070158;28;20105;-60
2023/03/01 01:49:53;;;;;;;75.15;6.80;;;-1.00;99.90;;;;;;5071125;28;20036;-61
2023/03/01 01:52:34;;;;;;;44.92;6.53;;;-0.70;99.90;;;;;;5071392;28;20041;-61
2023/03/01 01:55:03;;;;;;;80.18;7.45;;;-0.70;99.90;;;;;;5073347;28;20393;-60
2023/03/01 01:57:43;;;;;;;57.45;7.05;;;-0.60;99.90;;;;;;5075033;28;20064;-61
2023/03/01 02:00:21;;;;;;;66.60;7.65;;;-0.80;99.90;;;;;;5073667;28;20079;-61
2023/03/01 02:02:54;;;;;;;84.72;7.10;;;-0.80;99.90;;;;;;5075101;28;20040;-61
2023/03/01 02:05:45;;;;;;;96.35;7.93;;;-1.10;99.90;;;;;;5074402;28;20045;-60
2023/03/01 02:08:13;;;;;;;72.35;7.57;;;-0.90;99.90;;;;;;5074689;28;20041;-60
2023/03/01 02:10:39;;;;;;;59.13;7.40;;;-0.80;99.90;;;;;;5074826;28;20032;-60
2023/03/01 02:13:05;;;;;;;47.22;7.38;;;-0.80;99.90;;;;;;5074512;28;20484;-61
2023/03/01 02:15:35;;;;;;;43.75;6.13;;;-0.60;99.90;;;;;;5074953;28;20037;-60
2023/03/01 02:18:02;;;;;;;33.50;6.03;;;-0.80;99.90;;;;;;5073401;28;20454;-61
2023/03/01 02:20:34;;;;;;;44.50;7.40;;;-0.90;99.90;;;;;;5074362;28;20051;-60
2023/03/01 02:23:00;;;;;;;;;;;-0.40;99.90;;;;;;5074978;28;20048;-61
2023/03/01 02:25:26;;;;;;;33.63;5.38;;;-0.90;99.90;;;;;;5074456;28;19916;-61
2023/03/01 02:27:54;;;;;;;25.85;5.43;;;-1.10;99.90;;;;;;5074468;28;20090;-61
2023/03/01 02:30:22;;;;;;;11.73;5.03;;;-1.10;99.90;;;;;;5074388;28;20501;-61
2023/03/01 02:32:50;;;;;;;30.05;5.90;;;-0.70;99.90;;;;;;5074385;28;20082;-60
2023/03/01 02:35:18;;;;;;;41.08;7.25;;;-0.60;99.90;;;;;;5073135;28;20044;-61
2023/03/01 02:37:44;;;;;;;40.97;6.63;;;-0.90;99.90;;;;;;5074315;28;20036;-61
2023/03/01 02:40:17;;;;;;;54.28;7.82;;;-1.00;99.90;;;;;;5073073;28;20063;-60
2023/03/01 02:42:49;;;;;;;;;;;-0.90;99.90;;;;;;5074739;28;20461;-61
2023/03/01 02:45:15;;;;;;;11.50;5.20;;;-0.70;99.90;;;;;;5074308;28;19924;-61
2023/03/01 02:47:41;;;;;;;12.23;6.72;;;-0.60;99.90;;;;;;5074287;28;20048;-61
2023/03/01 02:50:30;;;;;;;12.52;7.72;;;-0.80;99.90;;;;;;5074117;28;20381;-60
2023/03/01 02:53:12;;;;;;;11.70;6.63;;;-0.50;99.90;;;;;;5074056;28;20472;-60
2023/03/01 02:55:38;;;;;;;11.98;7.32;;;-0.50;99.90;;;;;;5073819;28;20571;-61
2023/03/01 02:58:04;;;;;;;13.60;7.15;;;-0.40;99.90;;;;;;5073775;28;20033;-59
2023/03/01 03:00:39;;;;;;;14.32;8.10;;;-0.70;99.90;;;;;;5072242;28;20047;-60
2023/03/01 03:03:06;;;;;;;15.07;8.20;;;-0.60;99.90;;;;;;5073956;28;20041;-60
2023/03/01 03:05:34;;;;;;;15.07;9.43;;;-0.40;99.90;;;;;;5072306;28;20044;-60
2023/03/01 03:08:02;;;;;;;18.58;10.00;;;-0.60;99.90;;;;;;5072143;28;20229;-61
2023/03/01 03:10:30;;;;;;;18.25;10.02;;;-0.50;99.90;;;;;;5073069;28;20044;-61
2023/03/01 03:13:05;;;;;;;20.23;10.98;;;-0.40;99.90;;;;;;5072778;28;20072;-61
2023/03/01 03:15:32;;;;;;;21.75;10.80;;;-0.40;99.90;;;;;;5072861;28;20449;-61
2023/03/01 03:17:58;;;;;;;20.70;10.35;;;-0.40;99.90;;;;;;5073393;28;20048;-61
2023/03/01 03:20:26;;;;;;;21.25;11.20;;;-0.40;99.90;;;;;;5072916;28;20032;-61
2023/03/01 03:22:54;;;;;;;18.33;10.40;;;-0.50;99.90;;;;;;5073473;28;20040;-61
2023/03/01 03:25:21;;;;;;;13.10;7.25;;;-0.50;99.90;;;;;;5073379;28;20412;-61
2023/03/01 03:27:49;;;;;;;33.80;7.43;;;-1.10;99.90;;;;;;5071856;28;20045;-60
2023/03/01 03:30:18;;;;;;;51.92;7.82;;;-1.10;99.90;;;;;;5073306;28;20098;-61
2023/03/01 03:32:51;;;;;;;36.15;6.95;;;-1.80;99.90;;;;;;5073330;28;20404;-60
2023/03/01 03:35:20;;;;;;;91.30;7.95;;;-1.80;99.90;;;;;;5073034;28;20049;-60
2023/03/01 03:38:06;;;;;;;42.05;6.63;;;-2.20;99.90;;;;;;5073024;28;20090;-48
2023/03/01 03:40:42;;;;;;;42.38;6.38;;;-2.20;99.90;;;;;;5072907;28;20041;-49
2023/03/01 03:43:11;;;;;;;48.58;7.50;;;-1.80;99.90;;;;;;5073076;28;20053;-49
2023/03/01 03:45:37;;;;;;;43.00;6.60;;;-1.90;99.90;;;;;;5072941;28;20500;-48
2023/03/01 03:48:05;;;;;;;39.20;6.35;;;-1.80;99.90;;;;;;5073017;28;20082;-48
2023/03/01 03:50:31;;;;;;;33.35;6.90;;;-1.80;99.90;;;;;;5072615;28;20119;-48
2023/03/01 03:52:57;;;;;;;70.43;9.05;;;-1.50;99.90;;;;;;5072767;28;20044;-48
2023/03/01 03:55:22;;;;;;;57.10;7.97;;;-1.30;99.90;;;;;;5072788;28;20405;-49
2023/03/01 03:57:51;;;;;;;58.58;8.10;;;-1.10;99.90;;;;;;5072770;28;20032;-47
2023/03/01 04:00:23;;;;;;;33.58;6.22;;;-1.70;99.90;;;;;;5072792;28;20072;-51
2023/03/01 04:02:50;;;;;;;24.77;6.57;;;-1.60;99.90;;;;;;5072684;28;20105;-48
2023/03/01 04:05:18;;;;;;;45.25;8.00;;;-1.30;99.90;;;;;;5072553;28;20404;-47
2023/03/01 04:07:45;;;;;;;37.28;7.18;;;-1.40;99.90;;;;;;5072879;28;20041;-49
2023/03/01 04:10:14;;;;;;;32.85;7.60;;;-1.20;99.90;;;;;;5054579;28;20052;-48
2023/03/01 04:12:39;;;;;;;18.92;7.10;;;-1.40;99.90;;;;;;5071346;28;20120;-47
2023/03/01 04:15:13;;;;;;;23.77;6.45;;;-1.30;99.90;;;;;;5072498;28;20124;-51
2023/03/01 04:17:44;;;;;;;45.13;8.77;;;-1.50;99.90;;;;;;5071596;28;20033;-50
2023/03/01 04:20:24;;;;;;;26.90;7.97;;;-1.00;99.90;;;;;;5072466;28;20044;-50
2023/03/01 04:23:10;;;;;;;28.70;7.95;;;-1.00;99.90;;;;;;5072170;28;20090;-50
2023/03/01 04:25:41;;;;;;;22.13;8.20;;;-1.00;99.90;;;;;;5072411;28;20551;-49
2023/03/01 04:28:08;;;;;;;13.00;7.28;;;-1.20;99.90;;;;;;5072156;28;20041;-47
2023/03/01 04:30:35;;;;;;;12.38;6.40;;;-0.90;99.90;;;;;;5070841;28;20045;-48
2023/03/01 04:33:08;;;;;;;12.95;6.47;;;-1.20;99.90;;;;;;5072102;28;20131;-48
2023/03/01 04:35:35;;;;;;;10.93;6.25;;;-0.80;99.90;;;;;;5071152;28;20431;-49
2023/03/01 04:38:01;;;;;;;12.23;6.82;;;-1.10;99.90;;;;;;5071969;28;20033;-49
2023/03/01 04:40:27;;;;;;;10.60;5.85;;;-1.10;99.90;;;;;;5070898;28;20046;-49
2023/03/01 04:42:53;;;;;;;12.63;7.13;;;-1.20;99.90;;;;;;5071612;28;20088;-49
2023/03/01 04:45:18;;;;;;;10.20;5.80;;;-1.00;99.90;;;;;;5070900;28;20048;-49
2023/03/01 04:47:46;;;;;;;11.02;6.30;;;-1.30;99.90;;;;;;5069982;28;20052;-47
2023/03/01 04:50:15;;;;;;;10.68;6.10;;;-1.10;99.90;;;;;;5071832;28;20052;-49
2023/03/01 04:52:42;;;;;;;10.65;6.28;;;-1.30;99.90;;;;;;5071731;28;20127;-48
2023/03/01 04:55:09;;;;;;;10.80;5.95;;;-1.20;99.90;;;;;;5071690;28;20070;-49
2023/03/01 04:57:35;;;;;;;9.77;5.43;;;-1.00;99.90;;;;;;5071782;28;20043;-48
2023/03/01 05:00:00;;;;;;;10.63;5.53;;;-1.10;99.90;;;;;;5054168;28;20123;-48
2023/03/01 05:02:26;;;;;;;10.25;6.30;;;-1.10;99.90;;;;;;5071601;28;20036;-48
2023/03/01 05:04:52;;;;;;;10.02;5.90;;;-1.40;99.90;;;;;;5070595;28;20127;-46
2023/03/01 05:07:19;;;;;;;10.43;5.78;;;-1.10;99.90;;;;;;5071280;28;20040;-46
2023/03/01 05:09:48;;;;;;;11.07;5.88;;;-1.10;99.90;;;;;;5067744;28;20405;-48
2023/03/01 05:12:14;;;;;;;11.55;5.95;;;-1.40;99.90;;;;;;5071734;28;20048;-47
2023/03/01 05:14:41;;;;;;;9.82;5.28;;;-1.10;99.90;;;;;;5071639;28;20089;-46
2023/03/01 05:17:07;;;;;;;10.82;6.25;;;-1.40;99.90;;;;;;5071313;28;20097;-47
2023/03/01 05:19:34;;;;;;;11.43;5.97;;;-1.30;99.90;;;;;;5071152;28;20065;-50
2023/03/01 05:22:03;;;;;;;10.45;6.13;;;-1.20;99.90;;;;;;5071274;28;20044;-47
2023/03/01 05:24:34;;;;;;;10.65;6.15;;;-1.20;99.90;;;;;;5071639;28;20105;-47
2023/03/01 05:27:01;;;;;;;11.73;6.50;;;-1.30;99.90;;;;;;5071596;28;20494;-46
2023/03/01 05:29:28;;;;;;;10.88;6.43;;;-1.20;99.90;;;;;;5073072;28;20123;-50
2023/03/01 05:31:58;;;;;;;11.38;5.75;;;-1.40;99.90;;;;;;5075599;28;20040;-48
2023/03/01 05:34:30;;;;;;;12.02;6.97;;;-1.30;99.90;;;;;;5075340;28;20487;-51
2023/03/01 05:36:56;;;;;;;12.10;7.10;;;-1.30;99.90;;;;;;5075466;28;20048;-47
2023/03/01 05:39:27;;;;;;;12.77;7.03;;;-1.20;99.90;;;;;;5075717;28;20041;-50
2023/03/01 05:41:57;;;;;;;11.98;6.63;;;-1.50;99.90;;;;;;5075572;28;20040;-53
2023/03/01 05:44:24;;;;;;;11.95;6.38;;;-1.50;99.90;;;;;;5074929;28;20059;-46
2023/03/01 05:46:50;;;;;;;12.82;7.20;;;-1.60;99.90;;;;;;5075232;28;20116;-47
2023/03/01 05:49:16;;;;;;;14.35;7.85;;;-1.60;99.90;;;;;;5075348;28;20380;-47
2023/03/01 05:51:43;;;;;;;24.95;12.45;;;-1.50;99.90;;;;;;5075051;28;20466;-47
2023/03/01 05:54:09;;;;;;;23.02;12.48;;;-1.60;99.90;;;;;;5075386;28;20078;-48
2023/03/01 05:56:36;;;;;;;17.92;8.70;;;-1.60;99.90;;;;;;5074917;28;20043;-49
2023/03/01 05:59:02;;;;;;;15.57;8.48;;;-1.50;99.90;;;;;;5074958;28;20036;-46
2023/03/01 06:01:29;;;;;;;13.88;7.93;;;-1.40;99.90;;;;;;5075041;28;20074;-48
2023/03/01 06:03:55;;;;;;;14.32;7.85;;;-1.70;99.90;;;;;;5073759;28;20101;-48
2023/03/01 06:06:21;;;;;;;14.70;8.20;;;-1.50;99.90;;;;;;5075058;28;20275;-47
2023/03/01 06:08:47;;;;;;;14.85;7.68;;;-1.70;99.90;;;;;;5074995;28;20449;-47
2023/03/01 06:11:13;;;;;;;15.02;7.88;;;-1.60;99.90;;;;;;5074280;28;20044;-49
2023/03/01 06:13:38;;;;;;;13.85;7.75;;;-1.50;99.90;;;;;;5073038;28;20109;-49
2023/03/01 06:16:06;;;;;;;13.23;6.97;;;-1.60;99.90;;;;;;5073276;28;20044;-48
2023/03/01 06:18:32;;;;;;;11.63;6.47;;;-1.60;99.90;;;;;;5073120;28;20044;-48
2023/03/01 06:20:58;;;;;;;12.00;6.97;;;-2.00;99.90;;;;;;5073648;28;20036;-47
2023/03/01 06:23:24;;;;;;;11.18;5.70;;;-2.10;99.90;;;;;;5073196;28;20125;-46
2023/03/01 06:25:50;;;;;;;12.18;6.28;;;-2.10;99.90;;;;;;5073404;28;20040;-47
2023/03/01 06:28:15;;;;;;;12.52;6.53;;;-2.00;99.90;;;;;;5072867;28;20378;-49
2023/03/01 06:30:41;;;;;;;10.75;5.78;;;-2.10;99.90;;;;;;5072866;28;20048;-50
2023/03/01 06:33:07;;;;;;;9.95;5.70;;;-2.00;99.90;;;;;;5073166;28;20045;-47
2023/03/01 06:35:32;;;;;;;12.48;6.63;;;-2.00;99.90;;;;;;5072895;28;20029;-48
2023/03/01 06:38:00;;;;;;;11.13;5.95;;;-2.00;99.90;;;;;;5072984;28;20508;-50
2023/03/01 06:40:26;;;;;;;14.27;7.53;;;-1.90;99.90;;;;;;5070951;28;20489;-49
2023/03/01 06:42:51;;;;;;;13.52;7.10;;;-1.90;99.90;;;;;;5072100;28;20060;-48
2023/03/01 06:45:19;;;;;;;14.05;6.95;;;-2.00;99.90;;;;;;5072719;28;20036;-48
2023/03/01 06:47:45;;;;;;;16.17;7.20;;;-1.70;99.90;;;;;;5072440;28;20044;-53
2023/03/01 06:50:11;;;;;;;10.90;6.32;;;-1.90;99.90;;;;;;5072534;28;20040;-49
2023/03/01 06:52:37;;;;;;;13.25;6.47;;;-1.80;99.90;;;;;;5072604;28;20381;-47
2023/03/01 06:55:05;;;;;;;12.25;6.30;;;-1.50;99.90;;;;;;5072622;28;20067;-50
2023/03/01 06:57:30;;;;;;;12.85;7.30;;;-1.70;99.90;;;;;;5072482;28;20400;-47
2023/03/01 06:59:56;;;;;;;9.40;5.20;;;-1.60;99.90;;;;;;5072495;28;20044;-51
2023/03/01 07:02:22;;;;;;;10.27;5.15;;;-1.40;99.90;;;;;;5070929;28;20044;-48
2023/03/01 07:04:51;;;;;;;9.93;5.75;;;-1.50;99.90;;;;;;5072378;28;20041;-50
2023/03/01 07:07:18;;;;;;;10.43;5.80;;;-1.50;99.90;;;;;;5072500;28;20123;-49
2023/03/01 07:09:44;;;;;;;11.10;6.03;;;-1.30;99.90;;;;;;5071887;28;20091;-49
2023/03/01 07:12:10;;;;;;;9.63;5.70;;;-1.20;99.90;;;;;;5070671;28;20110;-50
2023/03/01 07:14:36;;;;;;;11.50;6.32;;;-1.30;99.90;;;;;;5071994;28;20032;-52
2023/03/01 07:17:02;;;;;;;11.75;6.30;;;-1.40;99.90;;;;;;5071774;28;20040;-48
2023/03/01 07:19:27;;;;;;;11.18;6.57;;;-1.10;99.90;;;;;;5070210;28;20090;-46
2023/03/01 07:21:55;;;;;;;10.77;6.38;;;-1.10;99.90;;;;;;5069793;28;20036;-46
2023/03/01 07:24:21;;;;;;;10.85;6.13;;;-1.20;99.90;;;;;;5069473;28;20051;-46
2023/03/01 07:26:51;;;;;;;11.07;6.57;;;-1.10;99.90;;;;;;5053999;28;20037;-48
2023/03/01 07:29:17;;;;;;;10.88;6.65;;;-0.80;99.90;;;;;;5071642;28;20036;-47
2023/03/01 07:31:43;;;;;;;11.75;6.60;;;-1.00;99.90;;;;;;5070836;28;20052;-47
2023/03/01 07:34:08;;;;;;;11.93;6.90;;;-0.90;99.90;;;;;;5071542;28;20133;-48
2023/03/01 07:36:34;;;;;;;13.48;6.68;;;-0.70;99.90;;;;;;5070649;28;20043;-49
2023/03/01 07:39:02;;;;;;;13.13;7.65;;;-0.60;99.90;;;;;;5071544;28;20072;-49
2023/03/01 07:41:27;;;;;;;16.38;8.50;;;-0.70;99.90;;;;;;5072208;28;20123;-49
2023/03/01 07:43:53;;;;;;;13.55;7.70;;;-0.60;99.90;;;;;;5072068;28;20501;-47
2023/03/01 07:46:19;;;;;;;13.18;8.05;;;-0.50;99.90;;;;;;5070525;28;20247;-49
2023/03/01 07:48:45;;;;;;;14.55;7.85;;;-0.50;99.90;;;;;;5060723;28;20484;-53
2023/03/01 07:51:10;;;;;;;14.05;6.97;;;-0.50;99.90;;;;;;5063869;28;20067;-48
2023/03/01 07:53:36;;;;;;;12.63;7.20;;;-0.60;99.90;;;;;;5065492;28;20123;-49
2023/03/01 07:56:11;;;;;;;13.65;7.57;;;-0.60;99.90;;;;;;5065056;28;20052;-50
2023/03/01 07:58:39;;;;;;;14.30;7.93;;;-0.60;99.90;;;;;;5068672;28;20107;-46
2023/03/01 08:01:07;;;;;;;16.73;8.85;;;-0.30;99.90;;;;;;5074140;28;20121;-47
2023/03/01 08:03:34;;;;;;;16.80;7.85;;;-0.20;99.90;;;;;;5078785;28;20072;-47
2023/03/01 08:06:01;;;;;;;14.73;8.43;;;-0.10;99.90;;;;;;5084266;28;20772;-47
2023/03/01 08:08:27;;;;;;;15.73;8.32;;;0.00;99.90;;;;;;5086254;28;20115;-48
2023/03/01 08:10:55;;;;;;;17.55;9.93;;;0.00;99.90;;;;;;5070159;28;20194;-46
2023/03/01 08:13:22;;;;;;;20.08;9.57;;;-0.20;99.90;;;;;;5070711;28;20109;-50
2023/03/01 08:15:50;;;;;;;18.33;11.00;;;0.20;99.90;;;;;;5070951;28;20052;-51
2023/03/01 08:18:17;;;;;;;18.58;9.95;;;0.10;99.90;;;;;;5070981;28;20044;-48
2023/03/01 08:20:43;;;;;;;17.70;10.73;;;0.40;99.90;;;;;;5070761;28;20089;-48
2023/03/01 08:23:10;;;;;;;17.05;10.32;;;0.30;99.90;;;;;;5070269;28;20040;-47
2023/03/01 08:25:35;;;;;;;18.95;10.85;;;0.60;99.90;;;;;;5070555;28;20048;-48
2023/03/01 08:28:01;;;;;;;18.35;11.82;;;0.40;99.90;;;;;;5070287;28;20036;-49
2023/03/01 08:30:27;;;;;;;18.33;11.98;;;0.90;99.90;;;;;;5069046;28;20123;-50
2023/03/01 08:32:53;;;;;;;22.10;12.98;;;0.90;99.90;;;;;;5070359;28;20396;-47
2023/03/01 08:35:20;;;;;;;20.08;11.98;;;0.90;99.90;;;;;;5070478;28;20037;-49
2023/03/01 08:37:46;;;;;;;19.42;11.63;;;0.90;99.90;;;;;;5069203;28;20040;-48
2023/03/01 08:40:13;;;;;;;22.55;13.35;;;1.00;99.90;;;;;;5070373;28;20055;-46
2023/03/01 08:42:40;;;;;;;25.40;14.20;;;1.20;99.90;;;;;;5070291;28;20063;-47
2023/03/01 08:45:07;;;;;;;25.40;14.13;;;1.70;99.90;;;;;;5070390;28;20099;-47
2023/03/01 08:47:33;;;;;;;28.95;15.32;;;1.60;99.90;;;;;;5070455;28;20044;-49
2023/03/01 08:49:59;;;;;;;28.95;16.85;;;1.50;99.90;;;;;;5068596;28;20075;-47
2023/03/01 08:52:25;;;;;;;31.95;17.27;;;1.70;99.90;;;;;;5070275;28;20772;-48
2023/03/01 08:54:52;;;;;;;34.10;18.42;;;1.90;99.90;;;;;;5069190;28;20127;-48
2023/03/01 08:57:18;;;;;;;34.67;18.70;;;2.30;99.90;;;;;;5070524;28;20071;-47
2023/03/01 08:59:43;;;;;;;32.88;18.58;;;2.30;99.90;;;;;;5070141;28;20068;-47
2023/03/01 09:02:13;;;;;;;45.75;27.42;;;2.20;99.90;;;;;;5070028;28;20044;-47
2023/03/01 09:04:39;;;;;;;58.42;38.78;;;2.40;99.90;;;;;;5069576;28;20219;-47
2023/03/01 09:07:05;;;;;;;61.92;36.53;;;2.60;99.90;;;;;;5070218;28;20028;-52
2023/03/01 09:09:31;;;;;;;56.30;34.22;;;2.80;99.90;;;;;;5070057;28;20507;-46
2023/03/01 09:11:57;;;;;;;59.38;35.13;;;2.40;99.90;;;;;;5069946;28;20094;-48
2023/03/01 09:14:23;;;;;;;58.42;33.45;;;2.90;99.90;;;;;;5070235;28;20455;-50
2023/03/01 09:16:48;;;;;;;60.60;35.58;;;2.50;99.90;;;;;;5070234;28;20049;-50
2023/03/01 09:19:14;;;;;;;54.63;34.90;;;2.60;99.90;;;;;;5069959;28;20400;-48
2023/03/01 09:21:40;;;;;;;49.28;30.50;;;2.90;99.90;;;;;;5069814;28;20037;-52
2023/03/01 09:24:13;;;;;;;49.15;29.42;;;3.00;99.90;;;;;;5070008;28;20532;-47
2023/03/01 09:26:39;;;;;;;46.15;27.90;;;2.80;99.90;;;;;;5069989;28;20131;-49
2023/03/01 09:29:04;;;;;;;46.47;27.20;;;2.90;99.90;;;;;;5070239;28;20119;-51
2023/03/01 09:31:30;;;;;;;45.13;26.90;;;3.10;99.90;;;;;;5068338;28;20051;-49
2023/03/01 09:33:56;;;;;;;38.15;23.95;;;3.00;99.90;;;;;;5069230;28;20032;-50
2023/03/01 09:36:25;;;;;;;39.08;23.55;;;3.20;99.90;;;;;;5069781;28;20484;-48
2023/03/01 09:38:52;;;;;;;39.63;24.05;;;3.30;99.90;;;;;;5069950;28;20453;-49
2023/03/01 09:41:44;;;;;;;38.25;23.08;;;3.20;99.90;;;;;;5070113;28;20569;-48
2023/03/01 09:44:32;;;;;;;38.97;23.37;;;3.40;99.90;;;;;;5069936;28;20064;-48
2023/03/01 09:47:00;;;;;;;32.15;19.52;;;3.50;99.90;;;;;;5069697;28;20036;-47
2023/03/01 09:49:30;;;;;;;30.33;17.52;;;3.50;99.90;;;;;;5068362;28;20049;-48
2023/03/01 09:52:01;;;;;;;31.58;17.65;;;3.50;99.90;;;;;;5069209;28;20037;-48
2023/03/01 09:54:27;;;;;;;27.67;16.33;;;3.60;99.90;;;;;;5070160;28;20044;-53
2023/03/01 09:57:14;;;;;;;25.98;15.85;;;3.60;99.90;;;;;;5068382;28;20388;-52
2023/03/01 10:00:08;;;;;;;25.95;14.98;;;3.80;99.90;;;;;;5069708;28;20036;-47
2023/03/01 10:02:42;;;;;;;29.58;16.27;;;3.70;99.90;;;;;;5069606;28;20044;-49
2023/03/01 10:05:37;;;;;;;29.10;17.10;;;3.80;99.90;;;;;;5071004;28;20039;-48
2023/03/01 10:08:29;;;;;;;28.85;15.95;;;3.90;99.90;;;;;;5066898;28;20052;-49
2023/03/01 10:10:55;;;;;;;24.10;14.77;;;4.00;99.90;;;;;;5069549;28;20124;-47
2023/03/01 10:13:29;;;;;;;24.30;14.80;;;4.00;99.90;;;;;;5069132;28;20147;-48
2023/03/01 10:16:01;;;;;;;23.15;15.13;;;4.10;99.90;;;;;;5070730;28;20574;-49
2023/03/01 10:18:31;;;;;;;23.48;15.15;;;4.00;99.90;;;;;;5074322;28;20032;-47
2023/03/01 10:21:01;;;;;;;27.92;17.08;;;4.10;99.90;;;;;;5074415;28;20119;-47
2023/03/01 10:23:30;;;;;;;25.45;16.60;;;4.20;99.90;;;;;;5074533;28;20045;-47
2023/03/01 10:26:28;;;;;;;23.90;15.95;;;4.30;99.90;;;;;;5074568;28;20036;-48
2023/03/01 10:29:07;;;;;;;26.10;16.17;;;4.30;99.90;;;;;;5046730;28;20056;-48
2023/03/01 10:31:49;;;;;;;23.15;14.85;;;4.40;99.90;;;;;;5073909;28;20098;-51
2023/03/01 10:34:26;;;;;;;28.17;14.77;;;4.50;99.90;;;;;;5074335;28;20036;-51
2023/03/01 10:36:56;;;;;;;23.35;15.15;;;4.50;99.90;;;;;;5074115;28;20047;-48
2023/03/01 10:39:24;;;;;;;22.88;15.75;;;4.60;99.90;;;;;;5074441;28;20028;-47
2023/03/01 10:42:02;;;;;;;24.20;14.55;;;4.50;99.90;;;;;;5074391;28;20040;-51
2023/03/01 10:44:45;;;;;;;22.65;15.63;;;4.60;99.90;;;;;;5072975;28;20048;-51
2023/03/01 10:47:20;;;;;;;22.67;14.30;;;4.60;99.90;;;;;;5073964;28;20090;-49
2023/03/01 10:49:56;;;;;;;23.75;14.57;;;4.70;99.90;;;;;;5072473;28;20080;-47
2023/03/01 10:52:28;;;;;;;26.45;16.50;;;4.80;99.90;;;;;;5074078;28;20039;-52
2023/03/01 10:54:57;;;;;;;23.52;15.70;;;5.00;99.90;;;;;;5074090;28;20045;-51
2023/03/01 10:57:32;;;;;;;22.33;15.82;;;5.00;99.90;;;;;;5074010;28;20455;-47
2023/03/01 11:00:22;;;;;;;24.38;15.15;;;5.10;99.90;;;;;;5072617;28;20047;-51
2023/03/01 11:03:03;;;;;;;22.55;15.45;;;5.10;99.90;;;;;;5072113;28;20044;-50
2023/03/01 11:05:30;;;;;;;22.58;15.68;;;5.10;99.90;;;;;;5073704;28;20044;-48
2023/03/01 11:08:00;;;;;;;23.40;15.48;;;5.20;99.90;;;;;;5072542;28;20048;-47
2023/03/01 11:10:31;;;;;;;21.92;14.35;;;5.30;99.90;;;;;;5073284;28;20033;-47
2023/03/01 11:13:29;;;;;;;22.80;15.83;;;5.30;99.90;;;;;;5054944;28;20493;-48
2023/03/01 11:16:07;;;;;;;22.98;15.48;;;5.30;99.90;;;;;;5028080;28;20798;-52
2023/03/01 11:18:33;;;;;;;25.75;16.17;;;5.30;99.90;;;;;;5072663;28;20407;-50
2023/03/01 11:21:01;;;;;;;25.08;15.27;;;5.40;99.90;;;;;;5071983;28;20136;-50
2023/03/01 11:23:29;;;;;;;22.50;14.55;;;5.50;99.90;;;;;;5073109;28;20045;-50
2023/03/01 11:26:05;;;;;;;24.23;15.88;;;5.50;99.90;;;;;;5073484;28;20389;-47
2023/03/01 11:28:32;;;;;;;23.55;14.85;;;5.60;99.90;;;;;;5054733;28;20128;-50
2023/03/01 11:31:05;;;;;;;20.98;14.77;;;5.70;99.90;;;;;;5071959;28;20072;-48
2023/03/01 11:33:46;;;;;;;23.30;14.02;;;5.70;99.90;;;;;;5073063;28;20094;-48
2023/03/01 11:36:35;;;;;;;21.80;14.32;;;5.80;99.90;;;;;;5073102;28;20044;-48
2023/03/01 11:39:23;;;;;;;20.98;14.23;;;6.00;99.90;;;;;;5076364;28;20127;-52
2023/03/01 11:42:00;;;;;;;23.75;15.32;;;6.00;99.90;;;;;;5080630;28;20481;-50
2023/03/01 11:44:29;;;;;;;26.35;15.70;;;6.00;99.90;;;;;;5075532;28;20044;-51
2023/03/01 11:47:29;;;;;;;22.98;14.13;;;6.10;99.90;;;;;;5072294;28;20484;-48
2023/03/01 11:50:19;;;;;;;21.77;13.82;;;6.10;99.90;;;;;;5069301;28;20079;-48
2023/03/01 11:53:04;;;;;;;22.90;15.20;;;6.30;99.90;;;;;;5071452;28;20045;-46
2023/03/01 11:55:51;;;;;;;21.05;13.48;;;6.30;99.90;;;;;;5072816;28;20409;-47
2023/03/01 11:58:45;;;;;;;23.08;12.95;;;6.30;99.90;;;;;;5072592;28;20033;-52
2023/03/01 12:01:30;;;;;;;19.10;12.57;;;6.40;99.90;;;;;;5061902;28;20489;-47
2023/03/01 12:04:46;;;;;;;21.85;13.10;;;6.40;99.90;;;;;;5069061;28;20123;-47
2023/03/01 12:07:30;;;;;;;17.15;11.73;;;6.50;99.90;;;;;;5071086;28;20485;-47
2023/03/01 12:10:43;;;;;;;18.20;11.60;;;6.60;99.90;;;;;;5072321;28;20047;-49
2023/03/01 12:13:08;;;;;;;19.90;11.35;;;6.50;99.90;;;;;;5026173;28;20052;-47
2023/03/01 12:15:55;;;;;;;16.65;11.25;;;6.60;99.90;;;;;;5072384;28;20090;-48
2023/03/01 12:19:09;;;;;;;18.25;11.07;;;6.70;99.90;;;;;;5070903;28;20249;-46
2023/03/01 12:21:42;;;;;;;;;;;6.70;99.90;;;;;;4991148;28;20053;-49
2023/03/01 12:24:30;;;;;;;16.65;10.20;;;6.70;99.90;;;;;;4990586;28;19918;-47
2023/03/01 12:27:06;;;;;;;15.75;9.57;;;6.80;99.90;;;;;;5044039;28;20112;-47
2023/03/01 12:29:58;;;;;;;17.50;10.43;;;6.70;99.90;;;;;;5072101;28;20048;-48
2023/03/01 12:32:51;;;;;;;17.83;10.45;;;6.70;99.90;;;;;;5072193;28;20055;-47
2023/03/01 12:35:32;;;;;;;17.95;11.00;;;6.80;99.90;;;;;;5072002;28;20033;-48
2023/03/01 12:38:30;;;;;;;18.23;11.27;;;6.80;99.90;;;;;;5071675;28;20040;-47
2023/03/01 12:41:24;;;;;;;20.60;11.68;;;6.90;99.90;;;;;;5071742;28;20051;-48
2023/03/01 12:44:15;;;;;;;19.02;11.93;;;7.00;99.90;;;;;;5071452;28;20068;-47
2023/03/01 12:47:11;;;;;;;18.45;11.60;;;7.00;99.90;;;;;;5071650;28;20049;-48
2023/03/01 12:49:59;;;;;;;16.48;11.30;;;7.00;99.90;;;;;;5071392;28;20473;-52
2023/03/01 12:52:33;;;;;;;19.52;11.43;;;7.00;99.90;;;;;;5071389;28;20036;-47
2023/03/01 12:55:02;;;;;;;20.42;12.52;;;7.00;99.90;;;;;;5071493;28;20068;-48
2023/03/01 12:57:36;;;;;;;19.45;11.13;;;7.00;99.90;;;;;;5071552;28;20032;-47